Terminal Aerodrome Forecast
Issued by NWS Wilmington, OH

Current Version | Previous Version | Graphics & Text | Print | Product List | Glossary On
Versions: 1 2 3 4 5 6 7 8 9 10 11 12 13 14 15 16 17 18 19 20 21
000
FTUS41 KILN 232336
TAFDAY
TAF
KDAY 232336Z 2400/2424 10014KT P6SM VCSH SCT022 OVC060
      TEMPO 2400/2402 5SM -SHRA BKN022
     FM240600 10010KT P6SM OVC050
     FM241400 11011KT 5SM -SHRA BR BKN018 OVC040
     FM241700 10010KT 5SM BR VCSH BKN007 OVC012
     FM242100 08008KT 5SM BR OVC006=

USA.gov is the U.S. government's official web portal to all federal, state and local government web resources and services.